sensor_id;sensor_type;location;lat;lon;timestamp;pressure;altitude;pressure_sealevel;temperature;humidity
19827;BME280;10074;52.018;4.726;2023-10-13T00:04:21;46469.88;;;-144.79;100.00
19827;BME280;10074;52.018;4.726;2023-10-13T00:09:26;46463.88;;;-144.79;100.00
19827;BME280;10074;52.018;4.726;2023-10-13T00:14:34;46465.88;;;-144.79;100.00
19827;BME280;10074;52.018;4.726;2023-10-13T00:19:37;46463.88;;;-144.79;100.00
19827;BME280;10074;52.018;4.726;2023-10-13T00:24:41;46467.88;;;-144.79;100.00
19827;BME280;10074;52.018;4.726;2023-10-13T00:29:48;46463.88;;;-144.79;100.00
19827;BME280;10074;52.018;4.726;2023-10-13T00:34:50;46465.88;;;-144.79;100.00
19827;BME280;10074;52.018;4.726;2023-10-13T00:39:56;46467.88;;;-144.79;100.00
19827;BME280;10074;52.018;4.726;2023-10-13T00:45:00;46469.88;;;-144.79;100.00
19827;BME280;10074;52.018;4.726;2023-10-13T00:50:01;46467.88;;;-144.79;100.00
19827;BME280;10074;52.018;4.726;2023-10-13T00:55:02;46463.88;;;-144.79;100.00
19827;BME280;10074;52.018;4.726;2023-10-13T01:00:05;46465.88;;;-144.79;100.00
19827;BME280;10074;52.018;4.726;2023-10-13T01:05:19;46465.88;;;-144.79;100.00
19827;BME280;10074;52.018;4.726;2023-10-13T01:10:21;46465.88;;;-144.79;100.00
19827;BME280;10074;52.018;4.726;2023-10-13T01:15:26;46469.88;;;-144.79;100.00
19827;BME280;10074;52.018;4.726;2023-10-13T01:20:33;46467.88;;;-144.79;100.00
19827;BME280;10074;52.018;4.726;2023-10-13T01:25:44;46463.88;;;-144.79;100.00
19827;BME280;10074;52.018;4.726;2023-10-13T01:30:45;46467.88;;;-144.79;100.00
19827;BME280;10074;52.018;4.726;2023-10-13T01:35:53;46467.88;;;-144.79;100.00
19827;BME280;10074;52.018;4.726;2023-10-13T01:40:55;46467.88;;;-144.79;100.00
19827;BME280;10074;52.018;4.726;2023-10-13T01:45:57;46469.88;;;-144.79;100.00
19827;BME280;10074;52.018;4.726;2023-10-13T01:50:58;46467.88;;;-144.79;100.00
19827;BME280;10074;52.018;4.726;2023-10-13T01:56:00;46471.91;;;-144.79;100.00
19827;BME280;10074;52.018;4.726;2023-10-13T02:01:05;46469.88;;;-144.79;100.00
19827;BME280;10074;52.018;4.726;2023-10-13T02:06:07;46473.91;;;-144.79;100.00
19827;BME280;10074;52.018;4.726;2023-10-13T02:11:10;46469.88;;;-144.79;100.00
19827;BME280;10074;52.018;4.726;2023-10-13T02:16:10;46465.88;;;-144.79;100.00
19827;BME280;10074;52.018;4.726;2023-10-13T02:21:11;46463.88;;;-144.79;100.00
19827;BME280;10074;52.018;4.726;2023-10-13T02:26:17;46465.88;;;-144.79;100.00
19827;BME280;10074;52.018;4.726;2023-10-13T02:31:30;46467.88;;;-144.79;100.00
19827;BME280;10074;52.018;4.726;2023-10-13T02:36:31;46471.91;;;-144.79;100.00
19827;BME280;10074;52.018;4.726;2023-10-13T02:42:00;46463.88;;;-144.79;100.00
19827;BME280;10074;52.018;4.726;2023-10-13T02:47:01;46465.88;;;-144.79;100.00
19827;BME280;10074;52.018;4.726;2023-10-13T02:52:01;46471.91;;;-144.79;100.00
19827;BME280;10074;52.018;4.726;2023-10-13T02:57:07;46467.88;;;-144.79;100.00
19827;BME280;10074;52.018;4.726;2023-10-13T03:02:08;46463.88;;;-144.79;100.00
19827;BME280;10074;52.018;4.726;2023-10-13T03:07:28;46467.88;;;-144.79;100.00
19827;BME280;10074;52.018;4.726;2023-10-13T03:12:29;46467.88;;;-144.79;100.00
19827;BME280;10074;52.018;4.726;2023-10-13T03:17:34;46473.91;;;-144.79;100.00
19827;BME280;10074;52.018;4.726;2023-10-13T03:22:34;46469.88;;;-144.79;100.00
19827;BME280;10074;52.018;4.726;2023-10-13T03:27:36;46467.88;;;-144.79;100.00
19827;BME280;10074;52.018;4.726;2023-10-13T03:32:48;46467.88;;;-144.79;100.00
19827;BME280;10074;52.018;4.726;2023-10-13T03:37:54;46467.88;;;-144.79;100.00
19827;BME280;10074;52.018;4.726;2023-10-13T03:42:56;46465.88;;;-144.79;100.00
19827;BME280;10074;52.018;4.726;2023-10-13T03:48:14;46469.88;;;-144.79;100.00
19827;BME280;10074;52.018;4.726;2023-10-13T03:53:24;46467.88;;;-144.79;100.00
19827;BME280;10074;52.018;4.726;2023-10-13T03:58:39;46463.88;;;-144.79;100.00
19827;BME280;10074;52.018;4.726;2023-10-13T04:03:43;46473.91;;;-144.79;100.00
19827;BME280;10074;52.018;4.726;2023-10-13T04:09:04;46467.88;;;-144.79;100.00
19827;BME280;10074;52.018;4.726;2023-10-13T04:14:23;46469.88;;;-144.79;100.00
19827;BME280;10074;52.018;4.726;2023-10-13T04:19:44;46467.88;;;-144.79;100.00
19827;BME280;10074;52.018;4.726;2023-10-13T04:25:03;46467.88;;;-144.79;100.00
19827;BME280;10074;52.018;4.726;2023-10-13T04:30:24;46467.88;;;-144.79;100.00
19827;BME280;10074;52.018;4.726;2023-10-13T04:35:27;46471.91;;;-144.79;100.00
19827;BME280;10074;52.018;4.726;2023-10-13T04:40:34;46465.88;;;-144.79;100.00
19827;BME280;10074;52.018;4.726;2023-10-13T04:45:42;46465.88;;;-144.79;100.00
19827;BME280;10074;52.018;4.726;2023-10-13T04:50:59;46467.88;;;-144.79;100.00
19827;BME280;10074;52.018;4.726;2023-10-13T04:56:19;46465.88;;;-144.79;100.00
19827;BME280;10074;52.018;4.726;2023-10-13T05:01:43;46465.88;;;-144.79;100.00
19827;BME280;10074;52.018;4.726;2023-10-13T05:07:01;46463.88;;;-144.79;100.00
19827;BME280;10074;52.018;4.726;2023-10-13T05:12:20;46463.88;;;-144.79;100.00
19827;BME280;10074;52.018;4.726;2023-10-13T05:17:39;46461.88;;;-144.79;100.00
19827;BME280;10074;52.018;4.726;2023-10-13T05:22:58;46463.88;;;-144.79;100.00
19827;BME280;10074;52.018;4.726;2023-10-13T05:28:17;46459.88;;;-144.79;100.00
19827;BME280;10074;52.018;4.726;2023-10-13T05:33:36;46459.88;;;-144.79;100.00
19827;BME280;10074;52.018;4.726;2023-10-13T05:38:55;46467.88;;;-144.79;100.00
19827;BME280;10074;52.018;4.726;2023-10-13T05:44:14;46463.88;;;-144.79;100.00
19827;BME280;10074;52.018;4.726;2023-10-13T05:49:33;46465.88;;;-144.79;100.00
19827;BME280;10074;52.018;4.726;2023-10-13T05:54:50;46463.88;;;-144.79;100.00
19827;BME280;10074;52.018;4.726;2023-10-13T06:00:09;46467.88;;;-144.79;100.00
19827;BME280;10074;52.018;4.726;2023-10-13T06:05:29;46465.88;;;-144.79;100.00
19827;BME280;10074;52.018;4.726;2023-10-13T06:10:48;46473.91;;;-144.79;100.00
19827;BME280;10074;52.018;4.726;2023-10-13T06:16:12;46467.88;;;-144.79;100.00
19827;BME280;10074;52.018;4.726;2023-10-13T06:21:32;46467.88;;;-144.79;100.00
19827;BME280;10074;52.018;4.726;2023-10-13T06:26:51;46471.91;;;-144.79;100.00
19827;BME280;10074;52.018;4.726;2023-10-13T06:32:11;46467.88;;;-144.79;100.00
19827;BME280;10074;52.018;4.726;2023-10-13T06:37:12;46461.88;;;-144.79;100.00
19827;BME280;10074;52.018;4.726;2023-10-13T06:42:30;46463.88;;;-144.79;100.00
19827;BME280;10074;52.018;4.726;2023-10-13T06:47:35;46459.88;;;-144.79;100.00
19827;BME280;10074;52.018;4.726;2023-10-13T06:52:43;46463.88;;;-144.79;100.00
19827;BME280;10074;52.018;4.726;2023-10-13T06:57:44;46465.88;;;-144.79;100.00
19827;BME280;10074;52.018;4.726;2023-10-13T07:02:45;46459.88;;;-144.79;100.00
19827;BME280;10074;52.018;4.726;2023-10-13T07:07:47;46461.88;;;-144.79;100.00
19827;BME280;10074;52.018;4.726;2023-10-13T07:12:48;46463.88;;;-144.79;100.00
19827;BME280;10074;52.018;4.726;2023-10-13T07:17:53;46457.88;;;-144.79;100.00
19827;BME280;10074;52.018;4.726;2023-10-13T07:22:59;46463.88;;;-144.79;100.00
19827;BME280;10074;52.018;4.726;2023-10-13T07:28:11;46467.88;;;-144.79;100.00
19827;BME280;10074;52.018;4.726;2023-10-13T07:33:12;46461.88;;;-144.79;100.00
19827;BME280;10074;52.018;4.726;2023-10-13T07:38:13;46463.88;;;-144.79;100.00
19827;BME280;10074;52.018;4.726;2023-10-13T07:43:13;46459.88;;;-144.79;100.00
19827;BME280;10074;52.018;4.726;2023-10-13T07:48:21;46463.88;;;-144.79;100.00
19827;BME280;10074;52.018;4.726;2023-10-13T07:53:21;46463.88;;;-144.79;100.00
19827;BME280;10074;52.018;4.726;2023-10-13T07:58:24;46463.88;;;-144.79;100.00
19827;BME280;10074;52.018;4.726;2023-10-13T08:03:25;46459.88;;;-144.79;100.00
19827;BME280;10074;52.018;4.726;2023-10-13T08:08:44;46465.88;;;-144.79;100.00
19827;BME280;10074;52.018;4.726;2023-10-13T08:13:50;46461.88;;;-144.79;100.00
19827;BME280;10074;52.018;4.726;2023-10-13T08:18:59;46463.88;;;-144.79;100.00
19827;BME280;10074;52.018;4.726;2023-10-13T08:24:01;46457.88;;;-144.79;100.00
19827;BME280;10074;52.018;4.726;2023-10-13T08:29:07;46459.88;;;-144.79;100.00
19827;BME280;10074;52.018;4.726;2023-10-13T08:34:16;46467.88;;;-144.79;100.00
19827;BME280;10074;52.018;4.726;2023-10-13T08:39:23;46461.88;;;-144.79;100.00
19827;BME280;10074;52.018;4.726;2023-10-13T08:44:44;46465.88;;;-144.79;100.00
19827;BME280;10074;52.018;4.726;2023-10-13T08:49:53;46461.88;;;-144.79;100.00
19827;BME280;10074;52.018;4.726;2023-10-13T08:55:10;46465.88;;;-144.79;100.00
19827;BME280;10074;52.018;4.726;2023-10-13T09:00:31;46461.88;;;-144.79;100.00
19827;BME280;10074;52.018;4.726;2023-10-13T09:06:01;46465.88;;;-144.79;100.00
19827;BME280;10074;52.018;4.726;2023-10-13T09:11:03;46463.88;;;-144.79;100.00
19827;BME280;10074;52.018;4.726;2023-10-13T09:16:13;46463.88;;;-144.79;100.00
19827;BME280;10074;52.018;4.726;2023-10-13T09:21:42;46463.88;;;-144.79;100.00
19827;BME280;10074;52.018;4.726;2023-10-13T09:26:43;46467.88;;;-144.79;100.00
19827;BME280;10074;52.018;4.726;2023-10-13T09:31:43;46473.91;;;-144.79;100.00
19827;BME280;10074;52.018;4.726;2023-10-13T09:36:45;46467.88;;;-144.79;100.00
19827;BME280;10074;52.018;4.726;2023-10-13T09:41:47;46467.88;;;-144.79;100.00
19827;BME280;10074;52.018;4.726;2023-10-13T09:46:54;46465.88;;;-144.79;100.00
19827;BME280;10074;52.018;4.726;2023-10-13T09:52:01;46469.88;;;-144.79;100.00
19827;BME280;10074;52.018;4.726;2023-10-13T09:57:18;46465.88;;;-144.79;100.00
19827;BME280;10074;52.018;4.726;2023-10-13T10:02:25;46465.88;;;-144.79;100.00
19827;BME280;10074;52.018;4.726;2023-10-13T10:07:28;46469.88;;;-144.79;100.00
19827;BME280;10074;52.018;4.726;2023-10-13T10:17:55;46473.91;;;-144.79;100.00
19827;BME280;10074;52.018;4.726;2023-10-13T10:22:57;46471.91;;;-144.79;100.00
19827;BME280;10074;52.018;4.726;2023-10-13T10:28:04;46471.91;;;-144.79;100.00
19827;BME280;10074;52.018;4.726;2023-10-13T10:33:06;46471.91;;;-144.79;100.00
19827;BME280;10074;52.018;4.726;2023-10-13T10:38:19;46467.88;;;-144.79;100.00
19827;BME280;10074;52.018;4.726;2023-10-13T10:48:46;46475.91;;;-144.79;100.00
19827;BME280;10074;52.018;4.726;2023-10-13T10:53:52;46469.88;;;-144.79;100.00
19827;BME280;10074;52.018;4.726;2023-10-13T10:58:58;46473.91;;;-144.79;100.00
19827;BME280;10074;52.018;4.726;2023-10-13T11:04:01;46479.91;;;-144.79;100.00
19827;BME280;10074;52.018;4.726;2023-10-13T11:09:09;46469.88;;;-144.79;100.00
19827;BME280;10074;52.018;4.726;2023-10-13T11:14:30;46471.91;;;-144.79;100.00
19827;BME280;10074;52.018;4.726;2023-10-13T11:19:40;46477.91;;;-144.79;100.00
19827;BME280;10074;52.018;4.726;2023-10-13T11:24:43;46473.91;;;-144.79;100.00
19827;BME280;10074;52.018;4.726;2023-10-13T11:29:43;46479.91;;;-144.79;100.00
19827;BME280;10074;52.018;4.726;2023-10-13T11:34:52;46473.91;;;-144.79;100.00
19827;BME280;10074;52.018;4.726;2023-10-13T11:39:54;46475.91;;;-144.79;100.00
19827;BME280;10074;52.018;4.726;2023-10-13T11:44:56;46475.91;;;-144.79;100.00
19827;BME280;10074;52.018;4.726;2023-10-13T11:50:16;46475.91;;;-144.79;100.00
19827;BME280;10074;52.018;4.726;2023-10-13T11:55:32;46475.91;;;-144.79;100.00
19827;BME280;10074;52.018;4.726;2023-10-13T12:00:32;46477.91;;;-144.79;100.00
19827;BME280;10074;52.018;4.726;2023-10-13T12:05:51;46479.91;;;-144.79;100.00
19827;BME280;10074;52.018;4.726;2023-10-13T12:11:06;46477.91;;;-144.79;100.00
19827;BME280;10074;52.018;4.726;2023-10-13T12:16:31;46479.91;;;-144.79;100.00
19827;BME280;10074;52.018;4.726;2023-10-13T12:21:34;46477.91;;;-144.79;100.00
19827;BME280;10074;52.018;4.726;2023-10-13T12:26:37;46475.91;;;-144.79;100.00
19827;BME280;10074;52.018;4.726;2023-10-13T12:31:41;46477.91;;;-144.79;100.00
19827;BME280;10074;52.018;4.726;2023-10-13T12:36:51;46479.91;;;-144.79;100.00
19827;BME280;10074;52.018;4.726;2023-10-13T12:42:05;46477.91;;;-144.79;100.00
19827;BME280;10074;52.018;4.726;2023-10-13T12:47:24;46479.91;;;-144.79;100.00
19827;BME280;10074;52.018;4.726;2023-10-13T12:52:43;46479.91;;;-144.79;100.00
19827;BME280;10074;52.018;4.726;2023-10-13T12:57:48;46479.91;;;-144.79;100.00
19827;BME280;10074;52.018;4.726;2023-10-13T13:02:48;46473.91;;;-144.79;100.00
19827;BME280;10074;52.018;4.726;2023-10-13T13:07:51;46477.91;;;-144.79;100.00
19827;BME280;10074;52.018;4.726;2023-10-13T13:12:54;46475.91;;;-144.79;100.00
19827;BME280;10074;52.018;4.726;2023-10-13T13:17:55;46473.91;;;-144.79;100.00
19827;BME280;10074;52.018;4.726;2023-10-13T13:22:55;46471.91;;;-144.79;100.00
19827;BME280;10074;52.018;4.726;2023-10-13T13:27:57;46473.91;;;-144.79;100.00
19827;BME280;10074;52.018;4.726;2023-10-13T13:32:58;46475.91;;;-144.79;100.00
19827;BME280;10074;52.018;4.726;2023-10-13T13:38:03;46479.91;;;-144.79;100.00
19827;BME280;10074;52.018;4.726;2023-10-13T13:43:10;46471.91;;;-144.79;100.00
19827;BME280;10074;52.018;4.726;2023-10-13T13:48:31;46477.91;;;-144.79;100.00
19827;BME280;10074;52.018;4.726;2023-10-13T13:53:32;46475.91;;;-144.79;100.00
19827;BME280;10074;52.018;4.726;2023-10-13T13:58:35;46475.91;;;-144.79;100.00
19827;BME280;10074;52.018;4.726;2023-10-13T14:03:39;46473.91;;;-144.79;100.00
19827;BME280;10074;52.018;4.726;2023-10-13T14:08:45;46467.88;;;-144.79;100.00
19827;BME280;10074;52.018;4.726;2023-10-13T14:13:48;46465.88;;;-144.79;100.00
19827;BME280;10074;52.018;4.726;2023-10-13T14:18:50;46467.88;;;-144.79;100.00
19827;BME280;10074;52.018;4.726;2023-10-13T14:23:52;46463.88;;;-144.79;100.00
19827;BME280;10074;52.018;4.726;2023-10-13T14:28:55;46463.88;;;-144.79;100.00
19827;BME280;10074;52.018;4.726;2023-10-13T14:34:02;46469.88;;;-144.79;100.00
19827;BME280;10074;52.018;4.726;2023-10-13T14:39:05;46467.88;;;-144.79;100.00
19827;BME280;10074;52.018;4.726;2023-10-13T14:44:09;46465.88;;;-144.79;100.00
19827;BME280;10074;52.018;4.726;2023-10-13T14:49:12;46467.88;;;-144.79;100.00
19827;BME280;10074;52.018;4.726;2023-10-13T14:54:18;46465.88;;;-144.79;100.00
19827;BME280;10074;52.018;4.726;2023-10-13T14:59:25;46467.88;;;-144.79;100.00
19827;BME280;10074;52.018;4.726;2023-10-13T15:04:25;46465.88;;;-144.79;100.00
19827;BME280;10074;52.018;4.726;2023-10-13T15:09:29;46463.88;;;-144.79;100.00
19827;BME280;10074;52.018;4.726;2023-10-13T15:14:29;46467.88;;;-144.79;100.00
19827;BME280;10074;52.018;4.726;2023-10-13T15:19:29;46463.88;;;-144.79;100.00
19827;BME280;10074;52.018;4.726;2023-10-13T15:24:36;46465.88;;;-144.79;100.00
19827;BME280;10074;52.018;4.726;2023-10-13T15:29:43;46461.88;;;-144.79;100.00
19827;BME280;10074;52.018;4.726;2023-10-13T15:34:51;46463.88;;;-144.79;100.00
19827;BME280;10074;52.018;4.726;2023-10-13T15:39:51;46461.88;;;-144.79;100.00
19827;BME280;10074;52.018;4.726;2023-10-13T15:44:52;46459.88;;;-144.79;100.00
19827;BME280;10074;52.018;4.726;2023-10-13T15:49:53;46461.88;;;-144.79;100.00
19827;BME280;10074;52.018;4.726;2023-10-13T15:54:53;46463.88;;;-144.79;100.00
19827;BME280;10074;52.018;4.726;2023-10-13T15:59:56;46459.88;;;-144.79;100.00
19827;BME280;10074;52.018;4.726;2023-10-13T16:04:57;46465.88;;;-144.79;100.00
19827;BME280;10074;52.018;4.726;2023-10-13T16:09:59;46461.88;;;-144.79;100.00
19827;BME280;10074;52.018;4.726;2023-10-13T16:15:02;46463.88;;;-144.79;100.00
19827;BME280;10074;52.018;4.726;2023-10-13T16:20:07;46459.88;;;-144.79;100.00
19827;BME280;10074;52.018;4.726;2023-10-13T16:25:16;46461.88;;;-144.79;100.00
19827;BME280;10074;52.018;4.726;2023-10-13T16:30:16;46463.88;;;-144.79;100.00
19827;BME280;10074;52.018;4.726;2023-10-13T16:35:19;46467.88;;;-144.79;100.00
19827;BME280;10074;52.018;4.726;2023-10-13T16:40:20;46467.88;;;-144.79;100.00
19827;BME280;10074;52.018;4.726;2023-10-13T16:45:21;46461.88;;;-144.79;100.00
19827;BME280;10074;52.018;4.726;2023-10-13T16:50:21;46461.88;;;-144.79;100.00
19827;BME280;10074;52.018;4.726;2023-10-13T16:55:22;46459.88;;;-144.79;100.00
19827;BME280;10074;52.018;4.726;2023-10-13T17:00:24;46461.88;;;-144.79;100.00
19827;BME280;10074;52.018;4.726;2023-10-13T17:05:27;46459.88;;;-144.79;100.00
19827;BME280;10074;52.018;4.726;2023-10-13T17:10:31;46459.88;;;-144.79;100.00
19827;BME280;10074;52.018;4.726;2023-10-13T17:15:33;46461.88;;;-144.79;100.00
19827;BME280;10074;52.018;4.726;2023-10-13T17:20:40;46463.88;;;-144.79;100.00
19827;BME280;10074;52.018;4.726;2023-10-13T17:25:40;46465.88;;;-144.79;100.00
19827;BME280;10074;52.018;4.726;2023-10-13T17:30:42;46467.88;;;-144.79;100.00
19827;BME280;10074;52.018;4.726;2023-10-13T17:35:45;46465.88;;;-144.79;100.00
19827;BME280;10074;52.018;4.726;2023-10-13T17:40:45;46465.88;;;-144.79;100.00
19827;BME280;10074;52.018;4.726;2023-10-13T17:45:47;46465.88;;;-144.79;100.00
19827;BME280;10074;52.018;4.726;2023-10-13T17:50:49;46467.88;;;-144.79;100.00
19827;BME280;10074;52.018;4.726;2023-10-13T17:55:49;46467.88;;;-144.79;100.00
19827;BME280;10074;52.018;4.726;2023-10-13T18:00:51;46463.88;;;-144.79;100.00
19827;BME280;10074;52.018;4.726;2023-10-13T18:05:59;46467.88;;;-144.79;100.00
19827;BME280;10074;52.018;4.726;2023-10-13T18:10:59;46463.88;;;-144.79;100.00
19827;BME280;10074;52.018;4.726;2023-10-13T18:16:21;46463.88;;;-144.79;100.00
19827;BME280;10074;52.018;4.726;2023-10-13T18:21:22;46461.88;;;-144.79;100.00
19827;BME280;10074;52.018;4.726;2023-10-13T18:26:23;46469.88;;;-144.79;100.00
19827;BME280;10074;52.018;4.726;2023-10-13T18:31:25;46463.88;;;-144.79;100.00
19827;BME280;10074;52.018;4.726;2023-10-13T18:36:28;46463.88;;;-144.79;100.00
19827;BME280;10074;52.018;4.726;2023-10-13T18:41:28;46461.88;;;-144.79;100.00
19827;BME280;10074;52.018;4.726;2023-10-13T18:46:30;46463.88;;;-144.79;100.00
19827;BME280;10074;52.018;4.726;2023-10-13T18:51:30;46463.88;;;-144.79;100.00
19827;BME280;10074;52.018;4.726;2023-10-13T18:56:32;46463.88;;;-144.79;100.00
19827;BME280;10074;52.018;4.726;2023-10-13T19:01:33;46463.88;;;-144.79;100.00
19827;BME280;10074;52.018;4.726;2023-10-13T19:06:34;46465.88;;;-144.79;100.00
19827;BME280;10074;52.018;4.726;2023-10-13T19:11:36;46467.88;;;-144.79;100.00
19827;BME280;10074;52.018;4.726;2023-10-13T19:16:40;46459.88;;;-144.79;100.00
19827;BME280;10074;52.018;4.726;2023-10-13T19:21:41;46461.88;;;-144.79;100.00
19827;BME280;10074;52.018;4.726;2023-10-13T19:26:46;46461.88;;;-144.79;100.00
19827;BME280;10074;52.018;4.726;2023-10-13T19:31:46;46463.88;;;-144.79;100.00
19827;BME280;10074;52.018;4.726;2023-10-13T19:36:47;46463.88;;;-144.79;100.00
19827;BME280;10074;52.018;4.726;2023-10-13T19:41:47;46463.88;;;-144.79;100.00
19827;BME280;10074;52.018;4.726;2023-10-13T19:46:47;46463.88;;;-144.79;100.00
19827;BME280;10074;52.018;4.726;2023-10-13T19:51:48;46469.88;;;-144.79;100.00
19827;BME280;10074;52.018;4.726;2023-10-13T19:56:48;46467.88;;;-144.79;100.00
19827;BME280;10074;52.018;4.726;2023-10-13T20:01:51;46463.88;;;-144.79;100.00
19827;BME280;10074;52.018;4.726;2023-10-13T20:06:52;46467.88;;;-144.79;100.00
19827;BME280;10074;52.018;4.726;2023-10-13T20:11:56;46463.88;;;-144.79;100.00
19827;BME280;10074;52.018;4.726;2023-10-13T20:16:58;46465.88;;;-144.79;100.00
19827;BME280;10074;52.018;4.726;2023-10-13T20:22:01;46465.88;;;-144.79;100.00
19827;BME280;10074;52.018;4.726;2023-10-13T20:27:11;46471.91;;;-144.79;100.00
19827;BME280;10074;52.018;4.726;2023-10-13T20:32:11;46471.91;;;-144.79;100.00
19827;BME280;10074;52.018;4.726;2023-10-13T20:37:16;46467.88;;;-144.79;100.00
19827;BME280;10074;52.018;4.726;2023-10-13T20:42:18;46465.88;;;-144.79;100.00
19827;BME280;10074;52.018;4.726;2023-10-13T20:47:19;46467.88;;;-144.79;100.00
19827;BME280;10074;52.018;4.726;2023-10-13T20:52:19;46465.88;;;-144.79;100.00
19827;BME280;10074;52.018;4.726;2023-10-13T20:57:19;46465.88;;;-144.79;100.00
19827;BME280;10074;52.018;4.726;2023-10-13T21:02:22;46461.88;;;-144.79;100.00
19827;BME280;10074;52.018;4.726;2023-10-13T21:07:22;46469.88;;;-144.79;100.00
19827;BME280;10074;52.018;4.726;2023-10-13T21:12:24;46473.91;;;-144.79;100.00
19827;BME280;10074;52.018;4.726;2023-10-13T21:17:24;46465.88;;;-144.79;100.00
19827;BME280;10074;52.018;4.726;2023-10-13T21:22:25;46471.91;;;-144.79;100.00
19827;BME280;10074;52.018;4.726;2023-10-13T21:27:27;46471.91;;;-144.79;100.00
19827;BME280;10074;52.018;4.726;2023-10-13T21:32:31;46467.88;;;-144.79;100.00
19827;BME280;10074;52.018;4.726;2023-10-13T21:37:31;46465.88;;;-144.79;100.00
19827;BME280;10074;52.018;4.726;2023-10-13T21:42:32;46471.91;;;-144.79;100.00
19827;BME280;10074;52.018;4.726;2023-10-13T21:47:32;46471.91;;;-144.79;100.00
19827;BME280;10074;52.018;4.726;2023-10-13T21:52:32;46473.91;;;-144.79;100.00
19827;BME280;10074;52.018;4.726;2023-10-13T21:57:34;46473.91;;;-144.79;100.00
19827;BME280;10074;52.018;4.726;2023-10-13T22:02:34;46469.88;;;-144.79;100.00
19827;BME280;10074;52.018;4.726;2023-10-13T22:07:35;46469.88;;;-144.79;100.00
19827;BME280;10074;52.018;4.726;2023-10-13T22:12:35;46475.91;;;-144.79;100.00
19827;BME280;10074;52.018;4.726;2023-10-13T22:17:37;46475.91;;;-144.79;100.00
19827;BME280;10074;52.018;4.726;2023-10-13T22:22:38;46477.91;;;-144.79;100.00
19827;BME280;10074;52.018;4.726;2023-10-13T22:27:39;46477.91;;;-144.79;100.00
19827;BME280;10074;52.018;4.726;2023-10-13T22:32:47;46475.91;;;-144.79;100.00
19827;BME280;10074;52.018;4.726;2023-10-13T22:37:50;46479.91;;;-144.79;100.00
19827;BME280;10074;52.018;4.726;2023-10-13T22:42:51;46473.91;;;-144.79;100.00
19827;BME280;10074;52.018;4.726;2023-10-13T22:47:54;46475.91;;;-144.79;100.00
19827;BME280;10074;52.018;4.726;2023-10-13T22:52:57;46475.91;;;-144.79;100.00
19827;BME280;10074;52.018;4.726;2023-10-13T22:58:00;46477.91;;;-144.79;100.00
19827;BME280;10074;52.018;4.726;2023-10-13T23:03:01;46471.91;;;-144.79;100.00
19827;BME280;10074;52.018;4.726;2023-10-13T23:08:02;46473.91;;;-144.79;100.00
19827;BME280;10074;52.018;4.726;2023-10-13T23:13:20;46477.91;;;-144.79;100.00
19827;BME280;10074;52.018;4.726;2023-10-13T23:18:21;46475.91;;;-144.79;100.00
19827;BME280;10074;52.018;4.726;2023-10-13T23:23:23;46471.91;;;-144.79;100.00
19827;BME280;10074;52.018;4.726;2023-10-13T23:28:25;46473.91;;;-144.79;100.00
19827;BME280;10074;52.018;4.726;2023-10-13T23:33:25;46475.91;;;-144.79;100.00
19827;BME280;10074;52.018;4.726;2023-10-13T23:38:26;46481.91;;;-144.79;100.00
19827;BME280;10074;52.018;4.726;2023-10-13T23:43:29;46473.91;;;-144.79;100.00
19827;BME280;10074;52.018;4.726;2023-10-13T23:48:31;46477.91;;;-144.79;100.00
19827;BME280;10074;52.018;4.726;2023-10-13T23:53:35;46477.91;;;-144.79;100.00
19827;BME280;10074;52.018;4.726;2023-10-13T23:58:38;46475.91;;;-144.79;100.00
